Time;durP1;ratioP1;P1;durP2;ratioP2;P2;SDS_P1;SDS_P2;PMS_P1;PMS_P2;Temp;Humidity;BMP_temperature;BMP_pressure;BME280_temperature;BME280_humidity;BME280_pressure;Samples;Min_cycle;Max_cycle;Signal;HPM_P1;HPM_P2
2022/12/14 00:02:16;;;;;;;0.55;0.40;;;22.90;41.50;;;;;;4059771;29;20341;-50
2022/12/14 00:04:39;;;;;;;1.23;0.60;;;22.90;41.30;;;;;;4057021;29;20176;-49
2022/12/14 00:07:01;;;;;;;1.20;0.60;;;22.90;41.30;;;;;;4060207;29;20158;-49
2022/12/14 00:09:25;;;;;;;0.98;0.60;;;22.90;40.70;;;;;;4048428;29;20508;-46
2022/12/14 00:11:47;;;;;;;0.88;0.40;;;22.90;40.80;;;;;;4056423;29;20044;-45
2022/12/14 00:14:10;;;;;;;0.90;0.45;;;22.90;40.70;;;;;;4052788;29;20036;-49
2022/12/14 00:16:34;;;;;;;0.95;0.70;;;22.90;40.60;;;;;;4056472;29;20035;-48
2022/12/14 00:18:58;;;;;;;0.93;0.50;;;22.90;40.20;;;;;;4059294;29;20095;-45
2022/12/14 00:21:22;;;;;;;1.00;0.50;;;22.90;39.80;;;;;;4053417;29;20040;-47
2022/12/14 00:23:46;;;;;;;1.50;0.57;;;22.90;39.40;;;;;;4055675;29;20111;-49
2022/12/14 00:26:15;;;;;;;1.20;0.73;;;22.90;39.30;;;;;;4039794;29;20156;-47
2022/12/14 00:28:38;;;;;;;1.85;0.80;;;22.90;39.20;;;;;;4058005;29;20518;-50
2022/12/14 00:31:01;;;;;;;1.77;0.63;;;22.90;39.00;;;;;;4057843;29;20028;-47
2022/12/14 00:33:23;;;;;;;1.08;0.60;;;22.90;38.70;;;;;;4058441;29;20059;-45
2022/12/14 00:35:46;;;;;;;1.17;0.50;;;22.90;38.40;;;;;;4055126;29;20466;-49
2022/12/14 00:38:09;;;;;;;0.95;0.40;;;22.90;38.00;;;;;;4058358;29;20079;-46
2022/12/14 00:40:31;;;;;;;2.00;0.80;;;22.80;37.00;;;;;;4053806;29;20056;-51
2022/12/14 00:42:54;;;;;;;1.05;0.60;;;22.80;37.50;;;;;;4054583;29;20501;-49
2022/12/14 00:45:16;;;;;;;2.08;0.68;;;22.80;37.50;;;;;;4058021;29;20051;-47
2022/12/14 00:47:39;;;;;;;1.75;0.82;;;22.80;37.50;;;;;;4057923;29;20377;-47
2022/12/14 00:50:01;;;;;;;2.00;0.77;;;22.90;37.00;;;;;;4058593;29;20576;-50
2022/12/14 00:52:24;;;;;;;1.08;0.55;;;22.80;37.00;;;;;;4057267;29;20052;-43
2022/12/14 00:54:47;;;;;;;1.90;0.65;;;22.80;36.30;;;;;;4055577;29;20059;-44
2022/12/14 00:57:09;;;;;;;1.20;0.60;;;22.80;35.40;;;;;;4055815;29;20055;-45
2022/12/14 00:59:32;;;;;;;2.53;0.90;;;22.80;35.20;;;;;;4048365;29;20055;-48
2022/12/14 01:01:54;;;;;;;3.40;0.82;;;22.70;35.90;;;;;;4053397;29;20067;-47
2022/12/14 01:04:18;;;;;;;2.60;0.73;;;22.70;35.30;;;;;;4058380;29;20082;-44
2022/12/14 01:06:41;;;;;;;1.98;0.73;;;22.70;35.10;;;;;;4059742;29;20104;-44
2022/12/14 01:09:03;;;;;;;1.13;0.93;;;22.70;35.40;;;;;;4058138;29;20054;-45
2022/12/14 01:11:26;;;;;;;1.92;0.80;;;22.70;34.80;;;;;;4059326;29;20036;-49
2022/12/14 01:13:48;;;;;;;2.60;0.95;;;22.70;34.60;;;;;;4057602;29;20051;-47
2022/12/14 01:16:14;;;;;;;2.00;0.60;;;22.70;34.80;;;;;;4054206;29;20523;-46
2022/12/14 01:18:38;;;;;;;1.90;0.52;;;22.70;34.30;;;;;;4058275;29;20115;-45
2022/12/14 01:21:14;;;;;;;1.52;0.88;;;22.60;34.30;;;;;;4051672;29;20152;-51
2022/12/14 01:23:37;;;;;;;1.80;0.50;;;22.60;34.70;;;;;;4055937;29;20540;-48
2022/12/14 01:25:59;;;;;;;2.45;0.80;;;22.60;34.50;;;;;;4053270;29;20045;-44
2022/12/14 01:28:22;;;;;;;1.05;0.70;;;22.60;35.10;;;;;;4062233;29;20044;-46
2022/12/14 01:30:44;;;;;;;2.97;0.77;;;22.60;34.30;;;;;;4056883;29;20130;-45
2022/12/14 01:33:07;;;;;;;2.42;0.82;;;22.60;34.70;;;;;;4053127;29;20465;-44
2022/12/14 01:35:29;;;;;;;2.15;0.90;;;22.60;34.50;;;;;;4059280;29;20036;-50
2022/12/14 01:37:52;;;;;;;0.50;0.50;;;22.60;34.30;;;;;;4057190;29;20111;-47
2022/12/14 01:40:15;;;;;;;1.40;0.60;;;22.70;34.60;;;;;;4053860;29;20158;-47
2022/12/14 01:42:37;;;;;;;1.38;0.73;;;22.60;34.70;;;;;;4052441;29;20048;-45
2022/12/14 01:45:00;;;;;;;1.60;0.77;;;22.70;34.80;;;;;;4061897;29;20403;-51
2022/12/14 01:47:29;;;;;;;1.95;0.50;;;22.70;35.30;;;;;;4058124;29;20044;-48
2022/12/14 01:50:13;;;;;;;2.22;1.00;;;22.70;35.40;;;;;;4060199;29;20439;-46
2022/12/14 01:52:46;;;;;;;1.33;0.73;;;22.70;34.70;;;;;;4061129;29;20147;-45
2022/12/14 01:55:26;;;;;;;1.02;0.80;;;22.80;33.90;;;;;;4056916;29;20167;-45
2022/12/14 01:58:02;;;;;;;0.98;0.60;;;22.70;34.70;;;;;;4064241;29;20099;-45
2022/12/14 02:00:24;;;;;;;1.83;0.80;;;22.80;35.20;;;;;;4059296;29;20452;-45
2022/12/14 02:02:59;;;;;;;1.95;0.85;;;22.70;34.10;;;;;;4052062;29;20055;-48
2022/12/14 02:05:21;;;;;;;;;;;22.70;34.10;;;;;;4062191;29;20056;-47
2022/12/14 02:07:44;;;;;;;2.45;0.63;;;22.70;34.30;;;;;;4059236;29;19911;-49
2022/12/14 02:10:08;;;;;;;2.70;0.90;;;22.70;34.00;;;;;;4051654;29;20051;-45
2022/12/14 02:12:48;;;;;;;1.55;0.47;;;22.70;32.50;;;;;;4054530;29;20047;-46
2022/12/14 02:15:13;;;;;;;2.15;0.57;;;22.70;33.20;;;;;;4061205;29;20455;-46
2022/12/14 02:17:36;;;;;;;1.75;0.60;;;22.80;33.20;;;;;;4061182;29;20131;-45
2022/12/14 02:19:59;;;;;;;1.27;0.40;;;22.80;32.00;;;;;;4060910;29;20051;-45
2022/12/14 02:22:33;;;;;;;1.10;0.65;;;22.80;33.40;;;;;;4060785;29;20040;-47
2022/12/14 02:25:22;;;;;;;2.70;0.73;;;22.80;34.10;;;;;;4058672;29;20098;-47
2022/12/14 02:28:21;;;;;;;1.25;0.63;;;22.80;33.50;;;;;;4056530;29;20037;-45
2022/12/14 02:31:05;;;;;;;0.95;0.40;;;22.80;32.30;;;;;;4057501;29;20127;-46
2022/12/14 02:33:55;;;;;;;0.63;0.40;;;22.80;32.70;;;;;;4059392;29;20032;-44
2022/12/14 02:36:51;;;;;;;0.88;0.43;;;22.90;33.40;;;;;;4059692;29;20032;-42
2022/12/14 02:39:42;;;;;;;1.92;0.60;;;22.90;32.20;;;;;;4056029;29;20071;-44
2022/12/14 02:42:13;;;;;;;0.80;0.38;;;22.90;31.90;;;;;;4056596;29;20040;-44
2022/12/14 02:44:51;;;;;;;1.15;0.63;;;22.90;32.60;;;;;;4056814;29;20156;-45
2022/12/14 02:47:42;;;;;;;1.85;0.70;;;22.90;33.30;;;;;;4055283;29;20150;-46
2022/12/14 02:50:16;;;;;;;2.08;0.50;;;22.90;32.10;;;;;;4055860;29;20491;-47
2022/12/14 02:52:47;;;;;;;2.28;0.60;;;22.90;32.20;;;;;;4060285;29;20507;-48
2022/12/14 02:55:24;;;;;;;0.68;0.50;;;22.90;32.90;;;;;;4059697;29;20056;-44
2022/12/14 02:58:04;;;;;;;1.92;0.73;;;22.90;32.30;;;;;;4070428;29;20120;-46
2022/12/14 03:00:29;;;;;;;0.95;0.60;;;22.90;31.30;;;;;;4060095;29;20064;-47
2022/12/14 03:02:52;;;;;;;0.80;0.65;;;22.90;30.70;;;;;;4053409;29;20484;-44
2022/12/14 03:05:15;;;;;;;2.13;0.77;;;22.90;30.70;;;;;;4061329;29;20050;-45
2022/12/14 03:07:53;;;;;;;1.50;0.90;;;23.00;30.80;;;;;;4060602;29;20051;-45
2022/12/14 03:10:20;;;;;;;1.20;0.60;;;23.00;31.20;;;;;;4057566;29;20059;-44
2022/12/14 03:12:48;;;;;;;1.67;0.50;;;23.00;30.00;;;;;;4053556;29;20076;-45
2022/12/14 03:15:15;;;;;;;0.88;0.45;;;23.00;29.70;;;;;;4047275;29;20071;-43
2022/12/14 03:17:39;;;;;;;2.03;0.60;;;23.00;30.60;;;;;;4056298;29;20153;-45
2022/12/14 03:20:10;;;;;;;0.40;0.30;;;23.00;29.50;;;;;;4055799;29;20060;-44
2022/12/14 03:22:51;;;;;;;2.30;0.60;;;23.00;29.40;;;;;;4053946;29;20119;-43
2022/12/14 03:25:21;;;;;;;1.95;0.50;;;23.00;29.90;;;;;;4058248;29;20047;-44
2022/12/14 03:28:06;;;;;;;0.90;0.50;;;23.00;30.30;;;;;;4061225;29;20135;-45
2022/12/14 03:30:28;;;;;;;;;;;23.10;30.60;;;;;;4054187;29;20036;-46
2022/12/14 03:33:01;;;;;;;2.38;0.60;;;23.10;29.60;;;;;;4059414;29;20346;-44
2022/12/14 03:35:31;;;;;;;3.00;0.73;;;23.10;29.30;;;;;;4051302;29;20071;-45
2022/12/14 03:38:01;;;;;;;0.85;0.32;;;23.10;29.70;;;;;;4060548;29;20092;-45
2022/12/14 03:40:33;;;;;;;1.10;0.60;;;23.10;30.00;;;;;;4054564;29;20048;-44
2022/12/14 03:43:15;;;;;;;2.42;0.50;;;23.20;29.80;;;;;;4056964;29;20662;-45
2022/12/14 03:45:46;;;;;;;1.10;0.55;;;23.20;29.90;;;;;;4053109;29;20389;-45
2022/12/14 03:48:23;;;;;;;1.55;0.55;;;23.20;29.70;;;;;;4060800;29;20040;-45
2022/12/14 03:51:14;;;;;;;0.85;0.45;;;23.20;30.00;;;;;;4057201;29;20063;-45
2022/12/14 03:54:00;;;;;;;1.85;0.65;;;23.20;29.20;;;;;;4052383;29;20043;-47
2022/12/14 03:56:32;;;;;;;1.10;0.43;;;23.30;29.60;;;;;;4061778;29;20054;-45
2022/12/14 03:59:36;;;;;;;0.90;0.40;;;23.30;30.00;;;;;;4048809;29;20062;-45
2022/12/14 04:02:36;;;;;;;1.40;0.50;;;23.30;29.60;;;;;;4049816;29;20079;-46
2022/12/14 04:05:14;;;;;;;1.42;0.60;;;23.40;29.60;;;;;;4030243;29;20038;-46
2022/12/14 04:07:51;;;;;;;0.77;0.55;;;23.40;29.80;;;;;;4055951;29;20044;-47
2022/12/14 04:18:58;;;;;;;0.47;0.47;;;23.60;29.70;;;;;;4046427;29;20444;-46
2022/12/14 04:21:47;;;;;;;1.08;0.70;;;23.60;29.80;;;;;;4038987;29;20036;-45
2022/12/14 04:27:20;;;;;;;1.02;0.50;;;23.70;29.60;;;;;;4051668;29;20067;-45
2022/12/14 04:29:59;;;;;;;1.48;0.70;;;23.80;29.90;;;;;;4052723;29;20039;-47
2022/12/14 04:32:30;;;;;;;0.95;0.70;;;23.80;30.20;;;;;;4054370;29;20609;-46
2022/12/14 04:35:05;;;;;;;2.55;1.15;;;23.80;30.40;;;;;;4053729;29;20047;-47
2022/12/14 04:37:30;;;;;;;1.65;0.65;;;23.90;30.50;;;;;;4055084;29;20497;-46
2022/12/14 04:40:07;;;;;;;1.20;0.60;;;24.00;30.90;;;;;;4051979;29;20135;-45
2022/12/14 04:42:41;;;;;;;2.88;0.80;;;24.00;29.90;;;;;;4054831;29;20059;-45
2022/12/14 04:45:23;;;;;;;0.60;0.50;;;24.10;30.50;;;;;;4046702;29;20241;-45
2022/12/14 04:48:04;;;;;;;1.35;0.60;;;24.20;30.70;;;;;;4053870;29;20105;-46
2022/12/14 04:50:35;;;;;;;1.35;0.65;;;24.20;30.20;;;;;;4050734;29;20528;-47
2022/12/14 04:53:31;;;;;;;1.23;0.65;;;24.30;30.00;;;;;;4057568;29;20475;-49
2022/12/14 04:56:24;;;;;;;1.27;0.60;;;24.40;30.00;;;;;;4041974;29;20254;-46
2022/12/14 04:58:47;;;;;;;3.40;0.90;;;24.40;29.90;;;;;;4049256;29;20032;-51
2022/12/14 05:01:45;;;;;;;2.13;0.60;;;24.50;30.60;;;;;;4044231;29;20048;-46
2022/12/14 05:04:26;;;;;;;2.17;0.50;;;24.50;30.90;;;;;;4041488;29;20072;-47
2022/12/14 05:06:57;;;;;;;0.77;0.47;;;24.60;31.00;;;;;;4054851;29;20523;-46
2022/12/14 05:09:38;;;;;;;1.67;0.70;;;24.60;30.60;;;;;;4047164;29;20448;-46
2022/12/14 05:12:06;;;;;;;1.40;0.63;;;24.70;30.70;;;;;;4054843;29;20084;-45
2022/12/14 05:14:36;;;;;;;1.23;0.60;;;24.70;30.00;;;;;;4055949;29;20039;-46
2022/12/14 05:17:01;;;;;;;2.13;0.70;;;24.80;30.20;;;;;;4057014;29;20048;-48
2022/12/14 05:19:25;;;;;;;1.77;0.70;;;24.80;30.70;;;;;;4053388;29;20081;-49
2022/12/14 05:21:48;;;;;;;1.30;0.60;;;24.90;30.40;;;;;;4060171;29;20408;-46
2022/12/14 05:24:10;;;;;;;0.68;0.52;;;24.90;30.90;;;;;;4056426;29;20051;-46
2022/12/14 05:26:33;;;;;;;0.98;0.40;;;25.00;31.00;;;;;;4057668;29;20131;-47
2022/12/14 05:28:55;;;;;;;1.67;0.60;;;25.10;31.20;;;;;;4057445;29;20094;-46
2022/12/14 05:31:18;;;;;;;1.75;0.55;;;25.10;30.60;;;;;;4055961;29;20760;-49
2022/12/14 05:33:40;;;;;;;1.38;0.60;;;25.10;31.20;;;;;;4052184;29;20413;-45
2022/12/14 05:36:03;;;;;;;0.98;0.60;;;25.20;31.80;;;;;;4050017;29;20040;-46
2022/12/14 05:38:26;;;;;;;0.88;0.50;;;25.20;31.70;;;;;;4059771;29;20123;-48
2022/12/14 05:40:48;;;;;;;1.17;0.40;;;25.30;32.40;;;;;;4056454;29;20036;-47
2022/12/14 05:43:12;;;;;;;2.20;0.65;;;25.30;32.30;;;;;;4056260;29;20047;-48
2022/12/14 05:45:35;;;;;;;0.70;0.40;;;25.40;32.00;;;;;;4057263;29;20044;-47
2022/12/14 05:47:57;;;;;;;2.03;0.40;;;25.40;30.80;;;;;;4059403;29;20044;-48
2022/12/14 05:50:20;;;;;;;1.35;0.50;;;25.50;31.10;;;;;;4051917;29;20051;-50
2022/12/14 05:52:43;;;;;;;1.70;0.52;;;25.50;31.50;;;;;;4049098;29;20156;-46
2022/12/14 05:55:07;;;;;;;1.70;0.70;;;25.60;31.30;;;;;;4055147;29;20059;-45
2022/12/14 05:57:30;;;;;;;1.00;0.50;;;25.70;31.00;;;;;;4063464;29;20043;-50
2022/12/14 05:59:52;;;;;;;;;;;25.70;31.10;;;;;;4056314;29;20055;-50
2022/12/14 06:02:15;;;;;;;1.13;0.73;;;25.70;31.40;;;;;;4058123;29;19911;-45
2022/12/14 06:04:37;;;;;;;1.42;0.50;;;25.80;31.00;;;;;;4053079;29;20044;-49
2022/12/14 06:07:00;;;;;;;1.50;0.55;;;25.80;30.90;;;;;;4052217;29;20048;-47
2022/12/14 06:09:23;;;;;;;1.52;0.77;;;25.80;30.00;;;;;;4050596;29;20445;-51
2022/12/14 06:11:46;;;;;;;0.93;0.70;;;25.80;30.20;;;;;;4059664;29;20048;-48
2022/12/14 06:14:10;;;;;;;1.48;0.68;;;25.80;30.90;;;;;;4057779;29;20406;-49
2022/12/14 06:16:33;;;;;;;0.35;0.30;;;25.80;31.20;;;;;;4056845;29;20120;-46
2022/12/14 06:18:58;;;;;;;0.80;0.40;;;25.80;31.60;;;;;;4059445;29;20024;-45
2022/12/14 06:21:24;;;;;;;0.77;0.50;;;25.80;31.30;;;;;;4062200;29;20115;-45
2022/12/14 06:23:47;;;;;;;0.65;0.63;;;25.80;30.70;;;;;;4053556;29;20044;-46
2022/12/14 06:26:11;;;;;;;4.05;0.70;;;25.80;30.90;;;;;;4062266;29;20040;-46
2022/12/14 06:28:34;;;;;;;0.65;0.50;;;25.80;30.10;;;;;;4060391;29;20055;-49
2022/12/14 06:30:57;;;;;;;0.60;0.40;;;25.80;30.10;;;;;;4061150;29;20047;-45
2022/12/14 06:33:19;;;;;;;0.95;0.57;;;25.80;30.60;;;;;;4030648;29;20039;-47
2022/12/14 06:35:46;;;;;;;1.58;0.60;;;25.80;31.10;;;;;;4059106;29;20048;-49
2022/12/14 06:38:08;;;;;;;2.58;0.90;;;25.80;31.40;;;;;;4060292;29;20055;-48
2022/12/14 06:40:31;;;;;;;3.78;1.10;;;25.80;31.40;;;;;;4057621;29;20135;-46
2022/12/14 06:42:53;;;;;;;2.25;0.85;;;25.80;31.60;;;;;;4060593;29;20047;-47
2022/12/14 06:45:16;;;;;;;2.53;0.80;;;25.70;31.80;;;;;;4044529;29;20081;-47
2022/12/14 06:47:39;;;;;;;3.17;0.98;;;25.70;32.00;;;;;;4059083;29;20131;-46
2022/12/14 06:50:02;;;;;;;2.28;1.13;;;25.70;31.90;;;;;;4058387;29;20122;-45
2022/12/14 06:52:24;;;;;;;2.10;1.13;;;25.70;31.90;;;;;;4060169;29;20127;-46
2022/12/14 06:54:47;;;;;;;3.47;0.80;;;25.70;31.70;;;;;;4063749;29;20058;-46
2022/12/14 06:57:09;;;;;;;1.30;0.70;;;25.70;31.40;;;;;;4063397;29;20044;-46
2022/12/14 07:01:43;;;;;;;1.85;0.65;;;25.70;31.00;;;;;;4118193;23;20059;-41
2022/12/14 07:04:06;;;;;;;4.20;1.00;;;25.70;31.00;;;;;;4077541;28;20410;-42
2022/12/14 07:06:33;;;;;;;2.75;0.77;;;25.70;31.10;;;;;;4074023;28;20043;-39
2022/12/14 07:08:58;;;;;;;0.80;0.50;;;25.70;31.00;;;;;;4093371;29;20081;-38
2022/12/14 07:11:21;;;;;;;1.85;0.60;;;25.70;31.40;;;;;;4082966;28;20117;-41
2022/12/14 07:14:05;;;;;;;2.05;0.88;;;25.70;31.50;;;;;;4117047;28;20042;-40
2022/12/14 07:16:46;;;;;;;5.95;0.88;;;25.70;31.40;;;;;;4071940;29;20040;-42
2022/12/14 07:19:09;;;;;;;1.63;0.60;;;25.70;31.70;;;;;;4067611;29;20040;-40
2022/12/14 07:21:32;;;;;;;1.17;0.65;;;25.70;31.30;;;;;;4056738;29;20044;-40
2022/12/14 07:23:55;;;;;;;1.30;0.90;;;25.60;31.20;;;;;;4051272;29;20036;-40
2022/12/14 07:26:23;;;;;;;1.08;0.60;;;25.60;31.90;;;;;;4057412;29;20748;-43
2022/12/14 07:28:47;;;;;;;1.65;0.52;;;25.60;31.90;;;;;;4063857;29;20058;-40
2022/12/14 07:31:22;;;;;;;2.50;0.80;;;25.60;32.00;;;;;;4409324;23;20171;-58
2022/12/14 07:33:44;;;;;;;3.17;0.55;;;25.60;32.20;;;;;;4061138;28;22217;-59
2022/12/14 07:36:10;;;;;;;1.17;0.70;;;25.50;31.60;;;;;;4072565;28;20050;-59
2022/12/14 07:38:34;;;;;;;1.38;0.50;;;25.50;31.70;;;;;;4078058;28;20154;-57
2022/12/14 07:41:13;;;;;;;0.80;0.30;;;25.50;31.30;;;;;;4079185;28;20047;-56
2022/12/14 07:43:40;;;;;;;1.10;0.52;;;25.40;31.10;;;;;;4072156;28;20053;-56
2022/12/14 07:46:05;;;;;;;0.50;0.38;;;25.40;31.10;;;;;;4078538;28;20039;-55
2022/12/14 07:48:28;;;;;;;1.23;0.63;;;25.40;31.70;;;;;;4071528;29;20039;-58
2022/12/14 07:50:50;;;;;;;1.60;0.55;;;25.40;31.70;;;;;;4078303;28;20051;-58
2022/12/14 07:53:13;;;;;;;1.40;0.50;;;25.30;32.10;;;;;;4080606;28;20531;-58
2022/12/14 07:55:35;;;;;;;0.60;0.40;;;25.30;32.20;;;;;;4075972;28;20047;-56
2022/12/14 07:57:58;;;;;;;0.88;0.40;;;25.30;32.00;;;;;;4080241;29;20054;-56
2022/12/14 08:00:21;;;;;;;1.52;0.57;;;25.30;32.20;;;;;;4078561;29;20051;-57
2022/12/14 08:02:44;;;;;;;0.77;0.47;;;25.30;32.30;;;;;;4078525;29;20047;-57
2022/12/14 08:05:06;;;;;;;1.65;0.50;;;25.30;32.10;;;;;;4079247;28;20277;-57
2022/12/14 08:07:30;;;;;;;0.93;0.43;;;25.30;31.90;;;;;;4080824;28;20493;-58
2022/12/14 08:09:52;;;;;;;1.70;0.40;;;25.20;31.90;;;;;;4077174;29;20470;-55
2022/12/14 08:12:15;;;;;;;0.63;0.38;;;25.20;31.90;;;;;;4085960;28;20050;-59
2022/12/14 08:14:38;;;;;;;1.63;0.60;;;25.20;31.60;;;;;;4085090;29;20043;-57
2022/12/14 08:17:00;;;;;;;1.27;0.70;;;25.20;31.60;;;;;;4083061;29;20039;-57
2022/12/14 08:19:24;;;;;;;1.45;0.60;;;25.10;31.50;;;;;;4085627;29;20047;-58
2022/12/14 08:21:46;;;;;;;0.73;0.55;;;25.10;31.40;;;;;;4083610;29;20450;-54
2022/12/14 08:24:13;;;;;;;0.73;0.40;;;25.10;31.50;;;;;;4077004;29;20122;-58
2022/12/14 08:26:36;;;;;;;1.63;0.57;;;25.10;31.80;;;;;;4076397;29;20055;-58
2022/12/14 08:28:58;;;;;;;0.85;0.50;;;25.10;31.80;;;;;;4084520;29;20035;-59
2022/12/14 08:31:23;;;;;;;1.05;0.50;;;25.10;31.80;;;;;;4076229;29;20098;-58
2022/12/14 08:33:46;;;;;;;0.88;0.60;;;25.00;31.70;;;;;;4079780;29;20475;-58
2022/12/14 08:36:14;;;;;;;0.30;0.30;;;25.00;31.70;;;;;;4075006;29;20118;-56
2022/12/14 08:38:38;;;;;;;0.55;0.38;;;25.00;31.70;;;;;;4073038;28;20051;-56
2022/12/14 08:41:06;;;;;;;0.70;0.60;;;25.00;31.60;;;;;;4074220;29;20051;-57
2022/12/14 08:43:29;;;;;;;0.30;0.30;;;24.90;32.20;;;;;;4082715;29;20221;-56
2022/12/14 08:45:54;;;;;;;0.65;0.30;;;24.90;32.70;;;;;;4078297;28;20452;-57
2022/12/14 08:48:17;;;;;;;0.95;0.43;;;24.90;33.00;;;;;;4076778;29;20047;-55
2022/12/14 08:50:39;;;;;;;0.50;0.50;;;24.90;33.30;;;;;;4069929;29;20327;-57
2022/12/14 08:53:02;;;;;;;1.13;0.35;;;24.90;33.40;;;;;;4076838;29;20098;-55
2022/12/14 08:55:25;;;;;;;0.60;0.40;;;24.90;32.90;;;;;;4080971;29;20658;-59
2022/12/14 08:57:48;;;;;;;0.50;0.40;;;24.90;32.90;;;;;;4077687;28;20126;-58
2022/12/14 09:00:11;;;;;;;0.93;0.52;;;24.90;33.00;;;;;;4081811;29;20415;-59
2022/12/14 09:02:34;;;;;;;0.63;0.40;;;24.90;32.90;;;;;;4069738;29;20559;-57
2022/12/14 09:04:57;;;;;;;2.30;0.50;;;24.90;32.50;;;;;;4075301;29;20043;-57
2022/12/14 09:07:19;;;;;;;0.30;0.30;;;24.80;32.60;;;;;;4072423;29;20040;-53
2022/12/14 09:09:42;;;;;;;1.35;0.50;;;24.80;33.10;;;;;;4081519;29;20103;-58
2022/12/14 09:12:06;;;;;;;0.65;0.43;;;24.80;33.20;;;;;;4082682;29;20091;-57
2022/12/14 09:14:29;;;;;;;1.45;0.70;;;24.80;33.30;;;;;;4088915;29;20061;-57
2022/12/14 09:16:51;;;;;;;1.27;0.43;;;24.80;33.70;;;;;;4064278;29;20509;-59
2022/12/14 09:19:14;;;;;;;0.30;0.30;;;24.80;33.80;;;;;;4079326;29;20051;-57
2022/12/14 09:21:37;;;;;;;0.30;0.20;;;24.80;33.80;;;;;;4080599;29;20046;-57
2022/12/14 09:24:00;;;;;;;1.77;0.50;;;24.80;34.00;;;;;;4103617;29;20552;-56
2022/12/14 09:26:24;;;;;;;1.70;0.60;;;24.80;34.20;;;;;;4085316;28;20671;-60
2022/12/14 09:28:52;;;;;;;1.80;0.70;;;24.70;34.50;;;;;;4067304;29;20110;-59
2022/12/14 09:31:17;;;;;;;4.88;0.95;;;24.80;34.70;;;;;;4081860;28;20566;-60
2022/12/14 09:33:39;;;;;;;4.43;0.98;;;24.80;35.00;;;;;;4081737;29;20043;-51
2022/12/14 09:36:13;;;;;;;1.52;0.73;;;24.80;35.10;;;;;;4081307;29;20043;-53
2022/12/14 09:38:38;;;;;;;2.45;0.40;;;24.80;35.20;;;;;;4079624;28;20047;-55
2022/12/14 09:41:04;;;;;;;1.67;0.50;;;24.80;34.90;;;;;;4074533;29;20043;-52
2022/12/14 09:43:39;;;;;;;1.80;0.47;;;24.80;34.90;;;;;;4076947;28;20390;-53
2022/12/14 09:46:28;;;;;;;2.78;0.60;;;24.80;35.00;;;;;;4075960;28;20040;-59
2022/12/14 09:48:51;;;;;;;3.03;0.43;;;24.80;35.20;;;;;;4055882;29;20537;-57
2022/12/14 09:51:16;;;;;;;2.72;0.52;;;24.80;35.20;;;;;;4081154;28;20121;-56
2022/12/14 09:53:41;;;;;;;1.65;0.60;;;24.80;35.40;;;;;;4070736;28;20126;-60
2022/12/14 09:56:05;;;;;;;2.10;0.60;;;24.80;35.40;;;;;;4077309;29;20035;-58
2022/12/14 09:58:29;;;;;;;1.50;0.40;;;24.80;35.40;;;;;;4068056;28;20385;-59
2022/12/14 10:01:29;;;;;;;1.73;0.50;;;24.80;35.50;;;;;;4076721;29;20414;-56
2022/12/14 10:04:26;;;;;;;1.00;0.52;;;24.90;35.70;;;;;;4074577;29;20404;-54
2022/12/14 10:07:13;;;;;;;1.67;0.60;;;24.90;35.80;;;;;;4040632;29;20047;-55
2022/12/14 10:09:59;;;;;;;0.40;0.40;;;24.90;35.70;;;;;;4074920;29;20051;-59
2022/12/14 10:12:27;;;;;;;1.30;0.50;;;25.00;35.80;;;;;;4080227;28;20151;-56
2022/12/14 10:15:22;;;;;;;1.15;0.40;;;25.00;35.80;;;;;;4075456;29;20038;-57
2022/12/14 10:18:15;;;;;;;1.85;0.68;;;25.00;35.90;;;;;;4065931;29;20428;-52
2022/12/14 10:21:09;;;;;;;1.13;0.40;;;25.00;35.90;;;;;;4077593;29;20890;-51
2022/12/14 10:23:34;;;;;;;1.52;0.50;;;25.10;36.00;;;;;;4077363;29;20043;-58
2022/12/14 10:26:08;;;;;;;0.55;0.30;;;25.10;36.00;;;;;;4077775;29;20050;-53
2022/12/14 10:28:57;;;;;;;0.98;0.40;;;25.10;36.00;;;;;;4076910;29;20070;-58
2022/12/14 10:31:49;;;;;;;0.40;0.40;;;25.10;36.00;;;;;;4078544;28;20087;-51
2022/12/14 10:34:21;;;;;;;2.15;0.50;;;25.10;36.00;;;;;;4076570;29;20043;-52
2022/12/14 10:37:00;;;;;;;1.05;0.30;;;25.10;36.00;;;;;;4078010;29;20491;-53
2022/12/14 10:39:39;;;;;;;0.30;0.30;;;25.10;36.00;;;;;;4075490;28;20426;-59
2022/12/14 10:42:22;;;;;;;0.60;0.30;;;25.10;36.00;;;;;;4069786;28;20058;-50
2022/12/14 10:44:56;;;;;;;0.30;0.30;;;25.10;36.10;;;;;;4045725;29;20044;-58
2022/12/14 10:47:37;;;;;;;2.53;0.55;;;25.20;36.10;;;;;;4074985;28;20039;-59
2022/12/14 10:50:17;;;;;;;4.13;0.43;;;25.20;36.10;;;;;;4076208;29;20125;-60
2022/12/14 10:52:41;;;;;;;1.90;0.50;;;25.30;36.10;;;;;;4079147;29;20048;-59
2022/12/14 10:55:13;;;;;;;1.10;0.60;;;25.20;34.80;;;;;;4079727;29;20035;-61
2022/12/14 10:57:36;;;;;;;0.32;0.30;;;25.20;34.70;;;;;;4079510;29;20035;-60
2022/12/14 10:59:58;;;;;;;0.68;0.50;;;25.10;34.50;;;;;;4082760;29;20641;-61
2022/12/14 11:02:26;;;;;;;1.15;0.40;;;25.10;34.90;;;;;;4063284;28;20042;-58
2022/12/14 11:04:56;;;;;;;5.07;0.80;;;25.10;35.10;;;;;;4076241;29;20090;-60
2022/12/14 11:07:30;;;;;;;3.83;0.80;;;25.10;36.00;;;;;;4089473;28;20045;-58
2022/12/14 11:09:53;;;;;;;2.88;0.65;;;25.00;36.40;;;;;;4078989;29;20043;-57
2022/12/14 11:12:26;;;;;;;3.30;0.80;;;25.00;36.70;;;;;;4079770;29;20380;-59
2022/12/14 11:14:56;;;;;;;2.20;0.82;;;24.90;36.80;;;;;;4080876;29;20054;-61
2022/12/14 11:17:43;;;;;;;4.10;1.00;;;24.90;37.10;;;;;;4075664;29;20094;-60
2022/12/14 11:20:21;;;;;;;2.10;0.80;;;25.00;37.20;;;;;;4077410;29;20079;-61
2022/12/14 11:22:55;;;;;;;2.70;0.70;;;25.00;37.10;;;;;;4080479;29;20296;-60
2022/12/14 11:25:33;;;;;;;2.53;0.70;;;25.00;37.20;;;;;;4076337;29;20113;-60
2022/12/14 11:28:02;;;;;;;1.40;0.57;;;25.00;37.10;;;;;;4077388;29;20043;-60
2022/12/14 11:30:26;;;;;;;1.00;0.50;;;25.00;37.00;;;;;;4080163;29;20491;-58
2022/12/14 11:32:49;;;;;;;1.08;0.50;;;25.00;37.10;;;;;;4083729;29;20511;-60
2022/12/14 11:35:19;;;;;;;3.40;1.02;;;25.00;37.00;;;;;;4083545;29;20122;-60
2022/12/14 11:37:42;;;;;;;3.95;0.70;;;25.00;36.90;;;;;;4079763;29;20372;-59
2022/12/14 11:40:06;;;;;;;2.13;0.60;;;25.00;36.90;;;;;;4080150;29;20047;-60
2022/12/14 11:42:29;;;;;;;3.78;0.70;;;25.00;37.00;;;;;;4084733;28;20035;-60
2022/12/14 11:44:53;;;;;;;3.05;0.60;;;25.00;36.90;;;;;;4078034;29;20538;-61
2022/12/14 11:47:24;;;;;;;2.10;0.50;;;25.00;36.90;;;;;;4078673;28;20064;-52
2022/12/14 11:49:50;;;;;;;2.03;0.65;;;25.00;36.90;;;;;;4078927;29;20035;-55
2022/12/14 11:52:38;;;;;;;2.50;0.50;;;25.00;37.00;;;;;;4063300;29;20500;-55
2022/12/14 11:55:00;;;;;;;1.10;0.60;;;25.00;37.00;;;;;;4079086;29;20451;-52
2022/12/14 11:57:33;;;;;;;0.77;0.30;;;25.00;37.10;;;;;;4082910;29;20039;-54
2022/12/14 12:00:06;;;;;;;1.92;0.70;;;25.00;37.10;;;;;;4079813;29;20585;-56
2022/12/14 12:02:34;;;;;;;0.60;0.45;;;25.00;37.20;;;;;;4079826;29;20475;-57
2022/12/14 12:05:07;;;;;;;1.85;0.57;;;25.00;37.30;;;;;;4074547;29;20117;-55
2022/12/14 12:07:35;;;;;;;1.40;0.52;;;24.90;37.20;;;;;;4075895;29;20309;-56
2022/12/14 12:10:24;;;;;;;3.53;0.63;;;24.90;37.40;;;;;;4076571;28;20047;-58
2022/12/14 12:13:00;;;;;;;3.42;0.68;;;24.90;37.60;;;;;;4062226;29;20234;-58
2022/12/14 12:15:45;;;;;;;1.60;0.60;;;24.90;37.50;;;;;;4079491;29;20105;-52
2022/12/14 12:18:15;;;;;;;2.03;0.57;;;24.90;37.50;;;;;;4082661;29;20146;-56
2022/12/14 12:21:01;;;;;;;2.28;0.90;;;24.90;37.50;;;;;;4079256;29;20091;-59
2022/12/14 12:23:47;;;;;;;1.80;0.65;;;24.90;37.50;;;;;;4077965;29;20039;-50
2022/12/14 12:26:30;;;;;;;1.67;0.82;;;24.90;37.50;;;;;;4064749;29;20047;-58
2022/12/14 12:29:04;;;;;;;2.90;0.63;;;24.80;37.60;;;;;;4079960;29;20534;-54
2022/12/14 12:31:51;;;;;;;1.77;0.70;;;24.80;37.70;;;;;;4079220;29;20055;-51
2022/12/14 12:34:33;;;;;;;1.35;0.40;;;24.80;37.90;;;;;;4081079;29;20046;-53
2022/12/14 12:36:59;;;;;;;0.75;0.47;;;24.70;37.90;;;;;;4083197;29;20105;-53
2022/12/14 12:39:24;;;;;;;1.75;0.70;;;24.70;38.00;;;;;;4079446;28;20050;-56
2022/12/14 12:42:17;;;;;;;1.27;0.47;;;24.70;38.30;;;;;;4078795;28;20035;-57
2022/12/14 12:44:59;;;;;;;0.60;0.43;;;24.70;38.40;;;;;;4074375;29;20490;-54
2022/12/14 12:47:50;;;;;;;1.77;0.47;;;24.70;39.10;;;;;;4071198;28;20102;-50
2022/12/14 12:50:29;;;;;;;1.40;0.40;;;24.70;38.60;;;;;;4077476;29;20526;-57
2022/12/14 12:52:56;;;;;;;0.50;0.30;;;24.70;38.60;;;;;;4067903;28;20043;-55
2022/12/14 12:55:21;;;;;;;0.82;0.50;;;24.70;38.70;;;;;;4073188;29;20039;-56
2022/12/14 12:57:50;;;;;;;1.85;0.63;;;24.70;38.90;;;;;;4073958;29;20511;-56
2022/12/14 13:00:24;;;;;;;1.02;0.47;;;24.70;39.00;;;;;;4073490;29;20051;-57
2022/12/14 13:02:59;;;;;;;1.70;0.70;;;24.60;39.10;;;;;;4069734;29;20508;-58
2022/12/14 13:05:24;;;;;;;3.80;0.60;;;24.60;39.30;;;;;;4073336;29;20890;-57
2022/12/14 13:08:00;;;;;;;7.90;1.17;;;24.60;39.30;;;;;;4068341;29;20043;-59
2022/12/14 13:10:40;;;;;;;3.95;0.98;;;24.60;39.50;;;;;;4074526;29;20046;-59
2022/12/14 13:13:37;;;;;;;2.13;0.60;;;24.60;39.60;;;;;;4067871;29;20089;-59
2022/12/14 13:16:14;;;;;;;1.98;0.80;;;24.60;39.60;;;;;;4028331;29;20031;-59